sensor_id;sensor_type;location;lat;lon;timestamp;temperature;humidity
34768;DHT22;21755;43.608;1.236;2023-07-09T00:02:21;23.60;1.00
34768;DHT22;21755;43.608;1.236;2023-07-09T00:04:47;23.60;1.00
34768;DHT22;21755;43.608;1.236;2023-07-09T00:07:32;23.50;1.00
34768;DHT22;21755;43.608;1.236;2023-07-09T00:09:59;23.40;1.00
34768;DHT22;21755;43.608;1.236;2023-07-09T00:12:25;23.40;1.00
34768;DHT22;21755;43.608;1.236;2023-07-09T00:14:51;23.20;1.00
34768;DHT22;21755;43.608;1.236;2023-07-09T00:17:27;23.20;1.00
34768;DHT22;21755;43.608;1.236;2023-07-09T00:19:54;23.20;1.00
34768;DHT22;21755;43.608;1.236;2023-07-09T00:22:20;23.20;1.00
34768;DHT22;21755;43.608;1.236;2023-07-09T00:24:49;23.10;1.00
34768;DHT22;21755;43.608;1.236;2023-07-09T00:27:18;23.00;1.00
34768;DHT22;21755;43.608;1.236;2023-07-09T00:29:44;23.00;1.00
34768;DHT22;21755;43.608;1.236;2023-07-09T00:32:19;23.00;1.00
34768;DHT22;21755;43.608;1.236;2023-07-09T00:34:50;23.00;1.00
34768;DHT22;21755;43.608;1.236;2023-07-09T00:37:21;22.90;1.00
34768;DHT22;21755;43.608;1.236;2023-07-09T00:39:48;22.80;1.00
34768;DHT22;21755;43.608;1.236;2023-07-09T00:42:16;22.80;1.00
34768;DHT22;21755;43.608;1.236;2023-07-09T00:44:52;22.90;1.00
34768;DHT22;21755;43.608;1.236;2023-07-09T00:50:47;22.80;1.00
34768;DHT22;21755;43.608;1.236;2023-07-09T00:53:05;22.80;1.00
34768;DHT22;21755;43.608;1.236;2023-07-09T00:55:38;22.70;1.00
34768;DHT22;21755;43.608;1.236;2023-07-09T00:58:09;22.80;3.20
34768;DHT22;21755;43.608;1.236;2023-07-09T01:00:50;22.80;1.00
34768;DHT22;21755;43.608;1.236;2023-07-09T01:03:38;22.70;1.00
34768;DHT22;21755;43.608;1.236;2023-07-09T01:06:08;22.70;5.40
34768;DHT22;21755;43.608;1.236;2023-07-09T01:08:35;22.70;17.00
34768;DHT22;21755;43.608;1.236;2023-07-09T01:11:02;22.80;5.30
34768;DHT22;21755;43.608;1.236;2023-07-09T01:13:29;22.70;9.40
34768;DHT22;21755;43.608;1.236;2023-07-09T01:15:58;22.80;3.30
34768;DHT22;21755;43.608;1.236;2023-07-09T01:18:25;22.80;1.00
34768;DHT22;21755;43.608;1.236;2023-07-09T01:21:01;22.70;1.00
34768;DHT22;21755;43.608;1.236;2023-07-09T01:23:27;22.80;1.00
34768;DHT22;21755;43.608;1.236;2023-07-09T01:25:54;22.80;1.00
34768;DHT22;21755;43.608;1.236;2023-07-09T01:28:21;22.80;1.00
34768;DHT22;21755;43.608;1.236;2023-07-09T01:30:48;22.80;1.00
34768;DHT22;21755;43.608;1.236;2023-07-09T01:33:21;22.80;1.00
34768;DHT22;21755;43.608;1.236;2023-07-09T01:35:47;22.80;1.00
34768;DHT22;21755;43.608;1.236;2023-07-09T01:38:13;22.80;1.00
34768;DHT22;21755;43.608;1.236;2023-07-09T01:40:41;22.80;1.00
34768;DHT22;21755;43.608;1.236;2023-07-09T01:43:07;22.70;1.00
34768;DHT22;21755;43.608;1.236;2023-07-09T01:45:35;22.70;1.00
34768;DHT22;21755;43.608;1.236;2023-07-09T01:48:02;22.80;1.00
34768;DHT22;21755;43.608;1.236;2023-07-09T01:50:29;22.80;1.00
34768;DHT22;21755;43.608;1.236;2023-07-09T01:52:55;22.70;1.00
34768;DHT22;21755;43.608;1.236;2023-07-09T01:55:22;22.70;1.00
34768;DHT22;21755;43.608;1.236;2023-07-09T01:57:48;22.70;2.00
34768;DHT22;21755;43.608;1.236;2023-07-09T02:00:16;22.70;1.00
34768;DHT22;21755;43.608;1.236;2023-07-09T02:02:45;22.60;1.00
34768;DHT22;21755;43.608;1.236;2023-07-09T02:05:13;22.60;1.00
34768;DHT22;21755;43.608;1.236;2023-07-09T02:07:39;22.60;1.00
34768;DHT22;21755;43.608;1.236;2023-07-09T02:10:06;22.70;11.60
34768;DHT22;21755;43.608;1.236;2023-07-09T02:12:32;22.80;13.30
34768;DHT22;21755;43.608;1.236;2023-07-09T02:14:58;22.70;3.00
34768;DHT22;21755;43.608;1.236;2023-07-09T02:17:24;22.70;14.70
34768;DHT22;21755;43.608;1.236;2023-07-09T02:19:50;22.60;3.50
34768;DHT22;21755;43.608;1.236;2023-07-09T02:22:16;22.50;25.00
34768;DHT22;21755;43.608;1.236;2023-07-09T02:24:42;22.50;23.80
34768;DHT22;21755;43.608;1.236;2023-07-09T02:27:09;22.50;29.70
34768;DHT22;21755;43.608;1.236;2023-07-09T02:29:36;22.50;15.90
34768;DHT22;21755;43.608;1.236;2023-07-09T02:32:04;22.50;29.00
34768;DHT22;21755;43.608;1.236;2023-07-09T02:34:30;22.40;20.40
34768;DHT22;21755;43.608;1.236;2023-07-09T02:36:58;22.30;10.70
34768;DHT22;21755;43.608;1.236;2023-07-09T02:39:24;22.30;28.90
34768;DHT22;21755;43.608;1.236;2023-07-09T02:41:50;22.30;38.30
34768;DHT22;21755;43.608;1.236;2023-07-09T02:44:17;22.30;34.40
34768;DHT22;21755;43.608;1.236;2023-07-09T02:46:44;22.30;44.20
34768;DHT22;21755;43.608;1.236;2023-07-09T02:49:12;22.30;41.60
34768;DHT22;21755;43.608;1.236;2023-07-09T02:51:38;22.30;55.80
34768;DHT22;21755;43.608;1.236;2023-07-09T02:54:05;22.30;45.00
34768;DHT22;21755;43.608;1.236;2023-07-09T02:56:31;22.30;43.50
34768;DHT22;21755;43.608;1.236;2023-07-09T02:58:58;22.20;45.00
34768;DHT22;21755;43.608;1.236;2023-07-09T03:01:24;22.10;51.40
34768;DHT22;21755;43.608;1.236;2023-07-09T03:03:53;22.20;55.60
34768;DHT22;21755;43.608;1.236;2023-07-09T03:06:21;22.20;43.40
34768;DHT22;21755;43.608;1.236;2023-07-09T03:08:47;22.20;58.50
34768;DHT22;21755;43.608;1.236;2023-07-09T03:11:15;22.10;42.40
34768;DHT22;21755;43.608;1.236;2023-07-09T03:13:41;22.10;43.60
34768;DHT22;21755;43.608;1.236;2023-07-09T03:16:07;22.00;45.20
34768;DHT22;21755;43.608;1.236;2023-07-09T03:18:33;22.00;51.60
34768;DHT22;21755;43.608;1.236;2023-07-09T03:20:59;22.00;58.20
34768;DHT22;21755;43.608;1.236;2023-07-09T03:23:25;22.00;51.60
34768;DHT22;21755;43.608;1.236;2023-07-09T03:25:51;22.00;57.30
34768;DHT22;21755;43.608;1.236;2023-07-09T03:28:17;22.10;65.60
34768;DHT22;21755;43.608;1.236;2023-07-09T03:30:44;22.10;58.70
34768;DHT22;21755;43.608;1.236;2023-07-09T03:33:12;22.00;68.70
34768;DHT22;21755;43.608;1.236;2023-07-09T03:35:38;22.00;63.40
34768;DHT22;21755;43.608;1.236;2023-07-09T03:38:05;22.00;67.80
34768;DHT22;21755;43.608;1.236;2023-07-09T03:40:32;22.00;68.50
34768;DHT22;21755;43.608;1.236;2023-07-09T03:42:58;22.10;78.70
34768;DHT22;21755;43.608;1.236;2023-07-09T03:45:24;22.00;65.00
34768;DHT22;21755;43.608;1.236;2023-07-09T03:47:50;22.00;72.30
34768;DHT22;21755;43.608;1.236;2023-07-09T03:50:16;22.00;70.30
34768;DHT22;21755;43.608;1.236;2023-07-09T03:52:42;22.00;70.70
34768;DHT22;21755;43.608;1.236;2023-07-09T03:55:09;22.00;71.60
34768;DHT22;21755;43.608;1.236;2023-07-09T03:57:35;21.90;79.60
34768;DHT22;21755;43.608;1.236;2023-07-09T04:00:03;21.90;75.90
34768;DHT22;21755;43.608;1.236;2023-07-09T04:02:30;21.80;88.70
34768;DHT22;21755;43.608;1.236;2023-07-09T04:04:56;21.90;82.80
34768;DHT22;21755;43.608;1.236;2023-07-09T04:07:22;21.80;75.70
34768;DHT22;21755;43.608;1.236;2023-07-09T04:09:49;21.90;90.10
34768;DHT22;21755;43.608;1.236;2023-07-09T04:12:14;21.90;89.30
34768;DHT22;21755;43.608;1.236;2023-07-09T04:14:40;21.90;90.20
34768;DHT22;21755;43.608;1.236;2023-07-09T04:17:06;21.90;84.60
34768;DHT22;21755;43.608;1.236;2023-07-09T04:19:32;21.90;85.90
34768;DHT22;21755;43.608;1.236;2023-07-09T04:21:58;21.90;83.30
34768;DHT22;21755;43.608;1.236;2023-07-09T04:24:24;21.90;81.90
34768;DHT22;21755;43.608;1.236;2023-07-09T04:26:52;21.80;86.80
34768;DHT22;21755;43.608;1.236;2023-07-09T04:29:22;22.30;94.10
34768;DHT22;21755;43.608;1.236;2023-07-09T04:31:48;22.60;88.50
34768;DHT22;21755;43.608;1.236;2023-07-09T04:34:14;22.50;19.50
34768;DHT22;21755;43.608;1.236;2023-07-09T04:36:40;22.70;90.80
34768;DHT22;21755;43.608;1.236;2023-07-09T04:39:06;22.70;80.80
34768;DHT22;21755;43.608;1.236;2023-07-09T04:41:33;23.00;68.00
34768;DHT22;21755;43.608;1.236;2023-07-09T04:43:59;23.00;20.20
34768;DHT22;21755;43.608;1.236;2023-07-09T04:46:25;22.90;32.10
34768;DHT22;21755;43.608;1.236;2023-07-09T04:48:51;22.90;28.80
34768;DHT22;21755;43.608;1.236;2023-07-09T04:51:17;22.90;25.30
34768;DHT22;21755;43.608;1.236;2023-07-09T04:53:43;22.90;19.40
34768;DHT22;21755;43.608;1.236;2023-07-09T04:56:09;22.80;11.00
34768;DHT22;21755;43.608;1.236;2023-07-09T04:58:36;22.80;18.00
34768;DHT22;21755;43.608;1.236;2023-07-09T05:01:02;23.00;28.20
34768;DHT22;21755;43.608;1.236;2023-07-09T05:03:28;22.90;1.20
34768;DHT22;21755;43.608;1.236;2023-07-09T05:05:54;23.00;12.10
34768;DHT22;21755;43.608;1.236;2023-07-09T05:08:20;23.00;13.30
34768;DHT22;21755;43.608;1.236;2023-07-09T05:10:51;23.00;17.70
34768;DHT22;21755;43.608;1.236;2023-07-09T05:13:17;23.00;16.00
34768;DHT22;21755;43.608;1.236;2023-07-09T05:15:46;22.90;13.50
34768;DHT22;21755;43.608;1.236;2023-07-09T05:18:13;22.90;23.90
34768;DHT22;21755;43.608;1.236;2023-07-09T05:20:40;22.90;9.30
34768;DHT22;21755;43.608;1.236;2023-07-09T05:23:10;22.80;1.00
34768;DHT22;21755;43.608;1.236;2023-07-09T05:25:36;22.90;16.00
34768;DHT22;21755;43.608;1.236;2023-07-09T05:28:03;22.60;8.50
34768;DHT22;21755;43.608;1.236;2023-07-09T05:30:29;22.60;29.70
34768;DHT22;21755;43.608;1.236;2023-07-09T05:32:55;22.60;23.70
34768;DHT22;21755;43.608;1.236;2023-07-09T05:35:26;22.60;51.90
34768;DHT22;21755;43.608;1.236;2023-07-09T05:37:55;22.60;59.70
34768;DHT22;21755;43.608;1.236;2023-07-09T05:40:22;22.40;87.50
34768;DHT22;21755;43.608;1.236;2023-07-09T05:42:48;22.30;95.10
34768;DHT22;21755;43.608;1.236;2023-07-09T05:45:15;22.40;93.80
34768;DHT22;21755;43.608;1.236;2023-07-09T05:47:41;22.60;90.30
34768;DHT22;21755;43.608;1.236;2023-07-09T05:50:07;22.50;99.00
34768;DHT22;21755;43.608;1.236;2023-07-09T05:52:33;22.60;98.00
34768;DHT22;21755;43.608;1.236;2023-07-09T05:54:59;22.60;99.90
34768;DHT22;21755;43.608;1.236;2023-07-09T05:57:26;22.50;99.90
34768;DHT22;21755;43.608;1.236;2023-07-09T05:59:52;22.60;99.90
34768;DHT22;21755;43.608;1.236;2023-07-09T06:02:20;22.70;99.90
34768;DHT22;21755;43.608;1.236;2023-07-09T06:04:46;22.70;99.90
34768;DHT22;21755;43.608;1.236;2023-07-09T06:07:15;22.70;99.90
34768;DHT22;21755;43.608;1.236;2023-07-09T06:09:42;22.70;99.90
34768;DHT22;21755;43.608;1.236;2023-07-09T06:12:08;22.70;99.90
34768;DHT22;21755;43.608;1.236;2023-07-09T06:14:35;22.60;99.90
34768;DHT22;21755;43.608;1.236;2023-07-09T06:17:01;22.60;99.90
34768;DHT22;21755;43.608;1.236;2023-07-09T06:19:27;22.70;99.90
34768;DHT22;21755;43.608;1.236;2023-07-09T06:21:53;22.80;99.90
34768;DHT22;21755;43.608;1.236;2023-07-09T06:24:19;22.90;99.90
34768;DHT22;21755;43.608;1.236;2023-07-09T06:26:45;23.00;99.90
34768;DHT22;21755;43.608;1.236;2023-07-09T06:29:11;23.20;99.90
34768;DHT22;21755;43.608;1.236;2023-07-09T06:31:37;23.20;99.90
34768;DHT22;21755;43.608;1.236;2023-07-09T06:34:03;23.30;99.90
34768;DHT22;21755;43.608;1.236;2023-07-09T06:36:29;23.30;98.10
34768;DHT22;21755;43.608;1.236;2023-07-09T06:38:55;23.40;99.50
34768;DHT22;21755;43.608;1.236;2023-07-09T06:41:22;23.30;98.50
34768;DHT22;21755;43.608;1.236;2023-07-09T06:43:49;23.50;94.80
34768;DHT22;21755;43.608;1.236;2023-07-09T06:46:17;23.60;88.80
34768;DHT22;21755;43.608;1.236;2023-07-09T06:48:44;23.60;91.40
34768;DHT22;21755;43.608;1.236;2023-07-09T06:51:10;23.60;92.10
34768;DHT22;21755;43.608;1.236;2023-07-09T06:53:36;23.60;93.00
34768;DHT22;21755;43.608;1.236;2023-07-09T06:56:02;23.60;91.60
34768;DHT22;21755;43.608;1.236;2023-07-09T06:58:31;23.70;91.00
34768;DHT22;21755;43.608;1.236;2023-07-09T07:01:01;23.80;90.50
34768;DHT22;21755;43.608;1.236;2023-07-09T07:03:30;24.00;75.50
34768;DHT22;21755;43.608;1.236;2023-07-09T07:05:56;24.10;74.00
34768;DHT22;21755;43.608;1.236;2023-07-09T07:08:24;24.20;57.90
34768;DHT22;21755;43.608;1.236;2023-07-09T07:10:57;24.30;49.90
34768;DHT22;21755;43.608;1.236;2023-07-09T07:13:39;24.40;58.40
34768;DHT22;21755;43.608;1.236;2023-07-09T07:16:08;24.20;45.00
34768;DHT22;21755;43.608;1.236;2023-07-09T07:18:34;24.20;51.70
34768;DHT22;21755;43.608;1.236;2023-07-09T07:21:00;24.30;53.80
34768;DHT22;21755;43.608;1.236;2023-07-09T07:23:27;24.30;44.10
34768;DHT22;21755;43.608;1.236;2023-07-09T07:25:53;24.50;51.10
34768;DHT22;21755;43.608;1.236;2023-07-09T07:28:20;24.60;24.20
34768;DHT22;21755;43.608;1.236;2023-07-09T07:30:46;24.80;23.00
34768;DHT22;21755;43.608;1.236;2023-07-09T07:33:14;24.70;23.40
34768;DHT22;21755;43.608;1.236;2023-07-09T07:35:41;24.80;18.40
34768;DHT22;21755;43.608;1.236;2023-07-09T07:38:07;24.90;10.20
34768;DHT22;21755;43.608;1.236;2023-07-09T07:40:33;24.80;9.70
34768;DHT22;21755;43.608;1.236;2023-07-09T07:42:59;24.80;1.00
34768;DHT22;21755;43.608;1.236;2023-07-09T07:45:25;24.70;1.00
34768;DHT22;21755;43.608;1.236;2023-07-09T07:47:51;24.50;1.00
34768;DHT22;21755;43.608;1.236;2023-07-09T07:50:18;24.60;1.00
34768;DHT22;21755;43.608;1.236;2023-07-09T07:52:44;24.60;1.00
34768;DHT22;21755;43.608;1.236;2023-07-09T07:55:10;24.90;1.00
34768;DHT22;21755;43.608;1.236;2023-07-09T07:57:36;24.90;1.00
34768;DHT22;21755;43.608;1.236;2023-07-09T08:00:02;24.90;1.00
34768;DHT22;21755;43.608;1.236;2023-07-09T08:02:29;25.10;1.00
34768;DHT22;21755;43.608;1.236;2023-07-09T08:04:55;25.20;1.00
34768;DHT22;21755;43.608;1.236;2023-07-09T08:07:21;25.40;1.00
34768;DHT22;21755;43.608;1.236;2023-07-09T08:09:47;25.10;1.00
34768;DHT22;21755;43.608;1.236;2023-07-09T08:12:14;25.10;1.00
34768;DHT22;21755;43.608;1.236;2023-07-09T08:14:41;25.30;1.00
34768;DHT22;21755;43.608;1.236;2023-07-09T08:17:08;25.10;1.00
34768;DHT22;21755;43.608;1.236;2023-07-09T08:19:47;25.10;1.00
34768;DHT22;21755;43.608;1.236;2023-07-09T08:22:15;25.20;1.00
34768;DHT22;21755;43.608;1.236;2023-07-09T08:24:41;25.20;1.00
34768;DHT22;21755;43.608;1.236;2023-07-09T08:27:08;25.30;1.00
34768;DHT22;21755;43.608;1.236;2023-07-09T08:29:35;25.20;1.00
34768;DHT22;21755;43.608;1.236;2023-07-09T08:32:02;25.40;1.00
34768;DHT22;21755;43.608;1.236;2023-07-09T08:34:28;25.20;1.00
34768;DHT22;21755;43.608;1.236;2023-07-09T08:36:54;24.90;1.00
34768;DHT22;21755;43.608;1.236;2023-07-09T08:39:20;24.90;1.00
34768;DHT22;21755;43.608;1.236;2023-07-09T08:41:49;24.80;1.00
34768;DHT22;21755;43.608;1.236;2023-07-09T08:52:56;24.80;1.00
34768;DHT22;21755;43.608;1.236;2023-07-09T08:55:27;25.00;1.00
34768;DHT22;21755;43.608;1.236;2023-07-09T08:58:00;24.80;1.00
34768;DHT22;21755;43.608;1.236;2023-07-09T09:00:28;24.80;1.00
34768;DHT22;21755;43.608;1.236;2023-07-09T09:05:23;25.00;1.00
34768;DHT22;21755;43.608;1.236;2023-07-09T09:13:31;25.40;1.00
34768;DHT22;21755;43.608;1.236;2023-07-09T09:16:00;25.70;1.00
34768;DHT22;21755;43.608;1.236;2023-07-09T09:18:34;25.80;1.00
34768;DHT22;21755;43.608;1.236;2023-07-09T09:23:57;26.10;99.90
34768;DHT22;21755;43.608;1.236;2023-07-09T09:26:34;26.00;99.90
34768;DHT22;21755;43.608;1.236;2023-07-09T09:29:11;26.00;99.90
34768;DHT22;21755;43.608;1.236;2023-07-09T09:31:37;25.90;99.90
34768;DHT22;21755;43.608;1.236;2023-07-09T09:34:03;25.90;99.90
34768;DHT22;21755;43.608;1.236;2023-07-09T09:36:31;26.10;99.90
34768;DHT22;21755;43.608;1.236;2023-07-09T09:39:02;26.30;99.90
34768;DHT22;21755;43.608;1.236;2023-07-09T09:41:33;26.50;99.90
34768;DHT22;21755;43.608;1.236;2023-07-09T09:44:01;26.50;99.90
34768;DHT22;21755;43.608;1.236;2023-07-09T09:46:30;26.50;99.90
34768;DHT22;21755;43.608;1.236;2023-07-09T09:49:00;26.80;99.90
34768;DHT22;21755;43.608;1.236;2023-07-09T09:51:26;26.90;99.90
34768;DHT22;21755;43.608;1.236;2023-07-09T09:54:00;26.90;99.90
34768;DHT22;21755;43.608;1.236;2023-07-09T09:56:29;27.00;99.90
34768;DHT22;21755;43.608;1.236;2023-07-09T09:58:56;26.80;55.30
34768;DHT22;21755;43.608;1.236;2023-07-09T10:01:29;26.60;99.90
34768;DHT22;21755;43.608;1.236;2023-07-09T10:03:59;26.50;99.90
34768;DHT22;21755;43.608;1.236;2023-07-09T10:09:50;26.70;1.00
34768;DHT22;21755;43.608;1.236;2023-07-09T10:17:38;27.30;98.80
34768;DHT22;21755;43.608;1.236;2023-07-09T10:33:08;27.40;99.90
34768;DHT22;21755;43.608;1.236;2023-07-09T10:38:35;28.20;18.00
34768;DHT22;21755;43.608;1.236;2023-07-09T10:41:09;28.20;99.90
34768;DHT22;21755;43.608;1.236;2023-07-09T10:43:49;28.50;99.90
34768;DHT22;21755;43.608;1.236;2023-07-09T10:46:24;28.70;1.00
34768;DHT22;21755;43.608;1.236;2023-07-09T10:48:53;28.70;99.90
34768;DHT22;21755;43.608;1.236;2023-07-09T10:51:22;28.80;31.60
34768;DHT22;21755;43.608;1.236;2023-07-09T10:56:35;28.40;99.90
34768;DHT22;21755;43.608;1.236;2023-07-09T11:01:42;28.20;99.90
34768;DHT22;21755;43.608;1.236;2023-07-09T11:04:33;28.00;25.10
34768;DHT22;21755;43.608;1.236;2023-07-09T11:07:07;28.20;99.90
34768;DHT22;21755;43.608;1.236;2023-07-09T11:09:40;28.80;99.90
34768;DHT22;21755;43.608;1.236;2023-07-09T11:12:15;29.40;53.60
34768;DHT22;21755;43.608;1.236;2023-07-09T11:17:17;29.30;99.90
34768;DHT22;21755;43.608;1.236;2023-07-09T11:19:47;29.30;1.00
34768;DHT22;21755;43.608;1.236;2023-07-09T11:25:06;29.20;87.40
34768;DHT22;21755;43.608;1.236;2023-07-09T11:27:33;29.50;1.00
34768;DHT22;21755;43.608;1.236;2023-07-09T11:30:17;29.60;99.90
34768;DHT22;21755;43.608;1.236;2023-07-09T11:32:52;29.60;99.90
34768;DHT22;21755;43.608;1.236;2023-07-09T11:35:27;29.80;99.90
34768;DHT22;21755;43.608;1.236;2023-07-09T11:37:54;29.90;49.60
34768;DHT22;21755;43.608;1.236;2023-07-09T11:40:22;30.10;92.00
34768;DHT22;21755;43.608;1.236;2023-07-09T11:42:57;30.20;1.00
34768;DHT22;21755;43.608;1.236;2023-07-09T11:45:33;30.30;1.00
34768;DHT22;21755;43.608;1.236;2023-07-09T11:50:49;30.30;99.90
34768;DHT22;21755;43.608;1.236;2023-07-09T11:53:25;30.40;99.90
34768;DHT22;21755;43.608;1.236;2023-07-09T11:55:53;30.60;99.90
34768;DHT22;21755;43.608;1.236;2023-07-09T11:58:19;30.70;99.90
34768;DHT22;21755;43.608;1.236;2023-07-09T12:00:50;30.70;99.90
34768;DHT22;21755;43.608;1.236;2023-07-09T12:05:54;30.80;99.90
34768;DHT22;21755;43.608;1.236;2023-07-09T12:08:35;30.80;99.90
34768;DHT22;21755;43.608;1.236;2023-07-09T12:11:02;31.00;99.90
34768;DHT22;21755;43.608;1.236;2023-07-09T12:13:28;31.00;99.90
34768;DHT22;21755;43.608;1.236;2023-07-09T12:15:54;31.20;1.00
34768;DHT22;21755;43.608;1.236;2023-07-09T12:18:20;31.50;36.20
34768;DHT22;21755;43.608;1.236;2023-07-09T12:20:52;31.70;77.60
34768;DHT22;21755;43.608;1.236;2023-07-09T12:23:32;31.80;99.90
34768;DHT22;21755;43.608;1.236;2023-07-09T12:26:03;31.60;1.00
34768;DHT22;21755;43.608;1.236;2023-07-09T12:28:30;31.80;1.00
34768;DHT22;21755;43.608;1.236;2023-07-09T12:30:56;31.70;1.00
34768;DHT22;21755;43.608;1.236;2023-07-09T12:33:25;31.70;1.00
34768;DHT22;21755;43.608;1.236;2023-07-09T12:36:05;31.50;1.00
34768;DHT22;21755;43.608;1.236;2023-07-09T12:38:43;31.50;99.90
34768;DHT22;21755;43.608;1.236;2023-07-09T12:41:22;31.60;99.90
34768;DHT22;21755;43.608;1.236;2023-07-09T12:43:53;31.70;99.90
34768;DHT22;21755;43.608;1.236;2023-07-09T12:46:21;31.50;99.90
34768;DHT22;21755;43.608;1.236;2023-07-09T12:48:48;31.70;1.00
34768;DHT22;21755;43.608;1.236;2023-07-09T12:51:22;31.80;99.90
34768;DHT22;21755;43.608;1.236;2023-07-09T12:54:05;31.90;99.90
34768;DHT22;21755;43.608;1.236;2023-07-09T12:56:35;32.00;99.90
34768;DHT22;21755;43.608;1.236;2023-07-09T12:59:02;31.90;99.90
34768;DHT22;21755;43.608;1.236;2023-07-09T13:01:34;31.90;99.90
34768;DHT22;21755;43.608;1.236;2023-07-09T13:04:01;31.90;99.90
34768;DHT22;21755;43.608;1.236;2023-07-09T13:06:35;32.10;99.90
34768;DHT22;21755;43.608;1.236;2023-07-09T13:09:03;32.00;99.90
34768;DHT22;21755;43.608;1.236;2023-07-09T13:11:35;32.10;99.90
34768;DHT22;21755;43.608;1.236;2023-07-09T13:14:05;32.00;99.90
34768;DHT22;21755;43.608;1.236;2023-07-09T13:16:38;32.10;99.90
34768;DHT22;21755;43.608;1.236;2023-07-09T13:19:05;32.20;99.90
34768;DHT22;21755;43.608;1.236;2023-07-09T13:21:31;32.20;99.90
34768;DHT22;21755;43.608;1.236;2023-07-09T13:23:59;32.10;99.90
34768;DHT22;21755;43.608;1.236;2023-07-09T13:26:24;32.10;99.90
34768;DHT22;21755;43.608;1.236;2023-07-09T13:28:50;32.00;99.90
34768;DHT22;21755;43.608;1.236;2023-07-09T13:31:19;31.80;99.90
34768;DHT22;21755;43.608;1.236;2023-07-09T13:33:57;31.70;99.90
34768;DHT22;21755;43.608;1.236;2023-07-09T13:36:24;31.80;99.90
34768;DHT22;21755;43.608;1.236;2023-07-09T13:38:50;32.00;99.90
34768;DHT22;21755;43.608;1.236;2023-07-09T13:41:18;32.10;99.90
34768;DHT22;21755;43.608;1.236;2023-07-09T13:43:48;32.10;99.90
34768;DHT22;21755;43.608;1.236;2023-07-09T13:46:15;32.20;99.90
34768;DHT22;21755;43.608;1.236;2023-07-09T13:48:42;32.40;99.90
34768;DHT22;21755;43.608;1.236;2023-07-09T13:51:28;32.70;99.90
34768;DHT22;21755;43.608;1.236;2023-07-09T13:53:55;32.50;99.90
34768;DHT22;21755;43.608;1.236;2023-07-09T13:56:23;32.40;99.90
34768;DHT22;21755;43.608;1.236;2023-07-09T13:58:50;32.00;99.90
34768;DHT22;21755;43.608;1.236;2023-07-09T14:01:22;31.90;99.90
34768;DHT22;21755;43.608;1.236;2023-07-09T14:03:54;32.00;99.90
34768;DHT22;21755;43.608;1.236;2023-07-09T14:06:23;32.30;99.90
34768;DHT22;21755;43.608;1.236;2023-07-09T14:08:49;32.00;99.90
34768;DHT22;21755;43.608;1.236;2023-07-09T14:11:16;32.00;99.90
34768;DHT22;21755;43.608;1.236;2023-07-09T14:13:44;32.10;99.90
34768;DHT22;21755;43.608;1.236;2023-07-09T14:16:11;32.00;99.90
34768;DHT22;21755;43.608;1.236;2023-07-09T14:18:38;31.80;99.90
34768;DHT22;21755;43.608;1.236;2023-07-09T14:21:13;31.70;99.90
34768;DHT22;21755;43.608;1.236;2023-07-09T14:23:39;31.60;99.90
34768;DHT22;21755;43.608;1.236;2023-07-09T14:26:05;31.70;99.90
34768;DHT22;21755;43.608;1.236;2023-07-09T14:28:31;32.30;99.90
34768;DHT22;21755;43.608;1.236;2023-07-09T14:30:57;32.40;99.90
34768;DHT22;21755;43.608;1.236;2023-07-09T14:33:23;32.60;99.90
34768;DHT22;21755;43.608;1.236;2023-07-09T14:35:49;32.40;99.90
34768;DHT22;21755;43.608;1.236;2023-07-09T14:38:21;32.20;99.90
34768;DHT22;21755;43.608;1.236;2023-07-09T14:40:49;32.00;99.90
34768;DHT22;21755;43.608;1.236;2023-07-09T14:43:15;32.10;99.90
34768;DHT22;21755;43.608;1.236;2023-07-09T14:45:42;32.30;99.90
34768;DHT22;21755;43.608;1.236;2023-07-09T14:48:13;32.50;99.90
34768;DHT22;21755;43.608;1.236;2023-07-09T14:50:40;32.30;99.90
34768;DHT22;21755;43.608;1.236;2023-07-09T14:53:16;32.30;99.90
34768;DHT22;21755;43.608;1.236;2023-07-09T14:55:42;32.50;99.90
34768;DHT22;21755;43.608;1.236;2023-07-09T14:58:22;32.30;99.90
34768;DHT22;21755;43.608;1.236;2023-07-09T15:00:49;32.60;99.90
34768;DHT22;21755;43.608;1.236;2023-07-09T15:03:24;32.60;99.90
34768;DHT22;21755;43.608;1.236;2023-07-09T15:05:51;32.20;99.90
34768;DHT22;21755;43.608;1.236;2023-07-09T15:08:22;32.40;99.90
34768;DHT22;21755;43.608;1.236;2023-07-09T15:10:50;32.50;99.90
34768;DHT22;21755;43.608;1.236;2023-07-09T15:15:51;32.90;99.90
34768;DHT22;21755;43.608;1.236;2023-07-09T15:18:18;33.00;99.90
34768;DHT22;21755;43.608;1.236;2023-07-09T15:20:52;33.00;99.90
34768;DHT22;21755;43.608;1.236;2023-07-09T15:23:20;32.70;99.90
34768;DHT22;21755;43.608;1.236;2023-07-09T15:25:49;32.80;99.90
34768;DHT22;21755;43.608;1.236;2023-07-09T15:28:15;32.90;99.90
34768;DHT22;21755;43.608;1.236;2023-07-09T15:30:42;32.70;99.90
34768;DHT22;21755;43.608;1.236;2023-07-09T15:33:19;32.60;99.90
34768;DHT22;21755;43.608;1.236;2023-07-09T15:35:49;32.60;99.90
34768;DHT22;21755;43.608;1.236;2023-07-09T15:40:44;32.40;99.90
34768;DHT22;21755;43.608;1.236;2023-07-09T15:43:12;32.20;99.90
34768;DHT22;21755;43.608;1.236;2023-07-09T15:45:42;32.10;99.90
34768;DHT22;21755;43.608;1.236;2023-07-09T15:48:27;32.10;99.90
34768;DHT22;21755;43.608;1.236;2023-07-09T15:50:56;32.10;99.90
34768;DHT22;21755;43.608;1.236;2023-07-09T15:53:22;32.30;99.90
34768;DHT22;21755;43.608;1.236;2023-07-09T15:55:48;32.20;99.90
34768;DHT22;21755;43.608;1.236;2023-07-09T15:58:26;32.30;99.90
34768;DHT22;21755;43.608;1.236;2023-07-09T16:00:53;32.30;99.90
34768;DHT22;21755;43.608;1.236;2023-07-09T16:03:19;32.20;99.90
34768;DHT22;21755;43.608;1.236;2023-07-09T16:05:45;32.10;99.90
34768;DHT22;21755;43.608;1.236;2023-07-09T16:08:11;31.90;99.90
34768;DHT22;21755;43.608;1.236;2023-07-09T16:10:39;31.90;99.90
34768;DHT22;21755;43.608;1.236;2023-07-09T16:13:21;31.90;99.90
34768;DHT22;21755;43.608;1.236;2023-07-09T16:15:48;31.80;99.90
34768;DHT22;21755;43.608;1.236;2023-07-09T16:18:14;31.70;99.90
34768;DHT22;21755;43.608;1.236;2023-07-09T16:20:41;31.50;99.90
34768;DHT22;21755;43.608;1.236;2023-07-09T16:23:19;31.20;99.90
34768;DHT22;21755;43.608;1.236;2023-07-09T16:25:47;31.30;99.90
34768;DHT22;21755;43.608;1.236;2023-07-09T16:28:18;31.50;99.90
34768;DHT22;21755;43.608;1.236;2023-07-09T16:30:45;31.40;99.90
34768;DHT22;21755;43.608;1.236;2023-07-09T16:33:16;31.20;99.90
34768;DHT22;21755;43.608;1.236;2023-07-09T16:35:43;31.00;99.90
34768;DHT22;21755;43.608;1.236;2023-07-09T16:38:12;30.90;99.90
34768;DHT22;21755;43.608;1.236;2023-07-09T16:40:39;30.70;99.90
34768;DHT22;21755;43.608;1.236;2023-07-09T16:43:16;30.80;99.90
34768;DHT22;21755;43.608;1.236;2023-07-09T16:45:44;30.90;99.90
34768;DHT22;21755;43.608;1.236;2023-07-09T16:48:22;30.90;99.90
34768;DHT22;21755;43.608;1.236;2023-07-09T16:50:53;31.00;99.90
34768;DHT22;21755;43.608;1.236;2023-07-09T16:53:20;31.10;99.90